createdAt,value
2018-02-27T00:01:02.597Z,16.50
2018-02-27T00:03:30.331Z,10.02
2018-02-27T00:05:57.922Z,10.77
2018-02-27T00:08:25.600Z,19.08
2018-02-27T00:10:53.250Z,10.55
2018-02-27T00:13:20.953Z,9.90
2018-02-27T00:15:48.604Z,7.30
2018-02-27T00:18:16.192Z,12.32
2018-02-27T00:20:43.806Z,11.48
2018-02-27T00:23:11.365Z,10.27
2018-02-27T00:25:39.012Z,9.88
2018-02-27T00:28:06.701Z,9.98
2018-02-27T00:30:34.318Z,15.05
2018-02-27T00:33:01.953Z,17.25
2018-02-27T00:35:29.648Z,15.95
2018-02-27T00:37:57.203Z,21.60
2018-02-27T00:40:25.576Z,10.93
2018-02-27T00:42:53.270Z,17.33
2018-02-27T00:45:20.896Z,14.23
2018-02-27T00:47:48.531Z,17.62
2018-02-27T00:50:16.874Z,11.57
2018-02-27T00:52:44.498Z,12.23
2018-02-27T00:55:12.118Z,18.00
2018-02-27T00:57:39.693Z,15.52
2018-02-27T01:00:07.288Z,12.20
2018-02-27T01:02:34.922Z,19.35
2018-02-27T01:05:02.610Z,19.15
2018-02-27T01:07:30.219Z,15.07
2018-02-27T01:09:57.785Z,14.13
2018-02-27T01:12:25.474Z,11.45
2018-02-27T01:14:53.112Z,11.00
2018-02-27T01:17:20.696Z,12.23
2018-02-27T01:19:49.044Z,14.48
2018-02-27T01:22:16.740Z,15.43
2018-02-27T01:24:44.442Z,14.90
2018-02-27T01:27:12.186Z,15.35
2018-02-27T01:29:39.827Z,15.15
2018-02-27T01:32:07.484Z,12.95
2018-02-27T01:34:35.121Z,16.35
2018-02-27T01:37:02.698Z,13.48
2018-02-27T01:39:31.098Z,10.13
2018-02-27T01:41:59.535Z,12.07
2018-02-27T01:44:27.144Z,17.55
2018-02-27T01:46:55.545Z,13.50
2018-02-27T01:49:23.101Z,16.67
2018-02-27T01:51:50.710Z,11.88
2018-02-27T01:54:18.300Z,11.68
2018-02-27T01:56:46.637Z,12.55
2018-02-27T01:59:14.237Z,14.87
2018-02-27T02:01:42.572Z,16.55
2018-02-27T02:04:10.256Z,23.80
2018-02-27T02:06:37.814Z,18.73
2018-02-27T02:09:05.432Z,12.52
2018-02-27T02:11:34.913Z,21.40
2018-02-27T02:14:05.732Z,13.77
2018-02-27T02:16:36.321Z,21.50
2018-02-27T02:19:05.973Z,14.80
2018-02-27T02:21:34.866Z,13.75
2018-02-27T02:24:05.253Z,14.60
2018-02-27T02:26:34.512Z,24.15
2018-02-27T02:29:04.100Z,17.17
2018-02-27T02:31:33.586Z,13.75
2018-02-27T02:34:04.213Z,20.12
2018-02-27T02:36:34.025Z,14.50
2018-02-27T02:39:03.638Z,13.57
2018-02-27T02:41:33.576Z,9.68
2018-02-27T02:44:03.880Z,11.65
2018-02-27T02:46:34.458Z,12.52
2018-02-27T02:49:06.403Z,17.52
2018-02-27T02:51:44.188Z,16.17
2018-02-27T02:54:15.810Z,15.35
2018-02-27T02:56:45.257Z,15.27
2018-02-27T02:59:16.627Z,18.87
2018-02-27T03:01:47.664Z,15.48
2018-02-27T03:04:17.258Z,11.05
2018-02-27T03:06:47.887Z,14.02
2018-02-27T03:09:18.533Z,14.95
2018-02-27T03:11:55.786Z,12.85
2018-02-27T03:14:25.611Z,12.40
2018-02-27T03:16:56.075Z,14.00
2018-02-27T03:19:25.819Z,12.37
2018-02-27T03:21:56.450Z,12.25
2018-02-27T03:24:26.285Z,9.45
2018-02-27T03:26:56.027Z,14.20
2018-02-27T03:29:26.630Z,13.35
2018-02-27T03:31:56.296Z,12.23
2018-02-27T03:34:25.684Z,13.07
2018-02-27T03:36:54.978Z,15.75
2018-02-27T03:39:24.355Z,15.27
2018-02-27T03:41:53.872Z,20.23
2018-02-27T03:44:24.929Z,14.45
2018-02-27T03:47:03.166Z,13.10
2018-02-27T03:49:30.728Z,16.85
2018-02-27T03:51:58.304Z,19.00
2018-02-27T03:54:25.945Z,16.12
2018-02-27T03:56:53.504Z,19.90
2018-02-27T03:59:21.068Z,26.48
2018-02-27T04:01:48.693Z,16.70
2018-02-27T04:04:17.053Z,13.30
2018-02-27T04:06:46.411Z,20.15
2018-02-27T04:09:14.017Z,19.55
2018-02-27T04:11:41.573Z,25.95
2018-02-27T04:14:09.178Z,20.75
2018-02-27T04:16:36.772Z,15.57
2018-02-27T04:19:04.386Z,16.62
2018-02-27T04:21:31.990Z,15.38
2018-02-27T04:23:59.605Z,17.23
2018-02-27T04:26:27.932Z,18.15
2018-02-27T04:28:55.587Z,21.70
2018-02-27T04:31:23.169Z,22.15
2018-02-27T04:33:50.738Z,30.88
2018-02-27T04:36:18.349Z,14.45
2018-02-27T04:38:45.959Z,19.67
2018-02-27T04:41:13.549Z,14.95
2018-02-27T04:43:41.897Z,22.77
2018-02-27T04:46:09.531Z,12.27
2018-02-27T04:48:37.152Z,17.15
2018-02-27T04:51:05.565Z,21.92
2018-02-27T04:53:33.151Z,31.23
2018-02-27T04:56:00.793Z,14.35
2018-02-27T04:58:28.410Z,17.45
2018-02-27T05:00:56.729Z,18.50
2018-02-27T05:03:24.297Z,26.10
2018-02-27T05:05:51.898Z,18.62
2018-02-27T05:08:19.457Z,30.23
2018-02-27T05:10:47.063Z,22.98
2018-02-27T05:13:14.682Z,17.83
2018-02-27T05:15:43.009Z,16.65
2018-02-27T05:18:10.624Z,12.50
2018-02-27T05:20:38.956Z,16.77
2018-02-27T05:23:06.577Z,18.70
2018-02-27T05:25:34.948Z,14.35
2018-02-27T05:28:03.359Z,14.38
2018-02-27T05:30:30.945Z,14.93
2018-02-27T05:32:58.513Z,28.35
2018-02-27T05:35:26.121Z,15.80
2018-02-27T05:37:53.720Z,17.90
2018-02-27T05:40:21.312Z,15.02
2018-02-27T05:42:48.931Z,16.33
2018-02-27T05:45:16.554Z,21.60
2018-02-27T05:47:44.889Z,12.40
2018-02-27T05:50:12.480Z,13.88
2018-02-27T05:52:40.989Z,19.05
2018-02-27T05:55:08.552Z,16.02
2018-02-27T05:57:36.247Z,14.50
2018-02-27T06:00:03.820Z,17.35
2018-02-27T06:02:31.370Z,18.73
2018-02-27T06:04:58.969Z,12.90
2018-02-27T06:07:27.331Z,17.48
2018-02-27T06:09:54.961Z,19.55
2018-02-27T06:12:22.521Z,21.10
2018-02-27T06:14:50.167Z,18.95
2018-02-27T06:17:17.766Z,17.50
2018-02-27T06:19:45.364Z,23.67
2018-02-27T06:22:13.723Z,16.05
2018-02-27T06:24:41.382Z,23.75
2018-02-27T06:27:08.998Z,15.13
2018-02-27T06:29:36.597Z,11.63
2018-02-27T06:32:04.221Z,20.23
2018-02-27T06:34:31.836Z,20.50
2018-02-27T06:36:59.463Z,10.82
2018-02-27T06:39:27.060Z,17.33
2018-02-27T06:41:54.674Z,25.50
2018-02-27T06:44:22.338Z,16.73
2018-02-27T06:46:49.964Z,19.62
2018-02-27T06:49:18.334Z,12.80
2018-02-27T06:51:45.945Z,20.55
2018-02-27T06:54:13.628Z,17.85
2018-02-27T06:56:41.196Z,16.55
2018-02-27T06:59:08.803Z,18.33
2018-02-27T07:01:36.369Z,19.48
2018-02-27T07:04:04.002Z,14.95
2018-02-27T07:06:31.622Z,14.65
2018-02-27T07:08:59.186Z,29.98
2018-02-27T07:11:26.816Z,14.70
2018-02-27T07:13:54.432Z,21.62
2018-02-27T07:16:22.215Z,16.62
2018-02-27T07:18:50.102Z,32.20
2018-02-27T07:21:17.744Z,16.48
2018-02-27T07:23:46.076Z,14.77
2018-02-27T07:26:13.668Z,23.50
2018-02-27T07:28:41.421Z,27.27
2018-02-27T07:31:08.980Z,19.08
2018-02-27T07:33:36.605Z,11.88
2018-02-27T07:36:04.174Z,30.35
2018-02-27T07:38:31.739Z,17.08
2018-02-27T07:40:59.356Z,21.08
2018-02-27T07:43:27.762Z,18.95
2018-02-27T07:45:55.376Z,20.62
2018-02-27T07:48:23.282Z,25.37
2018-02-27T07:50:50.994Z,17.60
2018-02-27T07:53:19.397Z,18.30
2018-02-27T07:55:48.129Z,21.98
2018-02-27T07:58:16.126Z,21.58
2018-02-27T08:00:43.887Z,32.53
2018-02-27T08:03:11.814Z,19.75
2018-02-27T08:05:39.519Z,22.55
2018-02-27T08:08:08.018Z,19.58
2018-02-27T08:10:35.653Z,17.83
2018-02-27T08:13:04.071Z,20.08
2018-02-27T08:15:32.458Z,20.30
2018-02-27T08:18:00.071Z,25.85
2018-02-27T08:20:28.093Z,28.33
2018-02-27T08:22:55.785Z,21.55
2018-02-27T08:25:23.544Z,28.33
2018-02-27T08:27:51.415Z,19.73
2018-02-27T08:30:20.506Z,26.00
2018-02-27T08:32:48.167Z,27.52
2018-02-27T08:35:15.925Z,27.30
2018-02-27T08:37:43.594Z,22.67
2018-02-27T08:40:11.323Z,20.95
2018-02-27T08:42:39.802Z,33.38
2018-02-27T08:45:07.439Z,18.75
2018-02-27T08:47:36.232Z,28.83
2018-02-27T08:50:04.715Z,26.05
2018-02-27T08:52:32.428Z,28.42
2018-02-27T08:55:00.199Z,27.92
2018-02-27T08:57:27.907Z,24.63
2018-02-27T08:59:55.588Z,29.58
2018-02-27T09:02:23.312Z,32.10
2018-02-27T09:04:50.982Z,30.12
2018-02-27T09:07:18.664Z,36.03
2018-02-27T09:09:46.693Z,27.48
2018-02-27T09:12:14.320Z,26.90
2018-02-27T09:14:42.822Z,29.00
2018-02-27T09:17:11.244Z,26.80
2018-02-27T09:19:38.925Z,26.92
2018-02-27T09:22:07.341Z,32.33
2018-02-27T09:24:35.108Z,26.10
2018-02-27T09:27:03.083Z,32.65
2018-02-27T09:29:30.933Z,27.77
2018-02-27T09:31:58.955Z,26.62
2018-02-27T09:34:26.640Z,27.67
2018-02-27T09:36:54.430Z,35.22
2018-02-27T09:39:22.102Z,28.48
2018-02-27T09:41:49.868Z,30.88
2018-02-27T09:44:17.558Z,24.58
2018-02-27T09:46:45.276Z,35.60
2018-02-27T09:49:13.703Z,32.97
2018-02-27T09:51:41.595Z,31.45
2018-02-27T09:54:09.367Z,31.12
2018-02-27T09:56:37.185Z,37.63
2018-02-27T09:59:05.013Z,34.10
2018-02-27T10:01:32.715Z,38.15
2018-02-27T10:04:00.442Z,29.05
2018-02-27T10:06:28.071Z,22.52
2018-02-27T10:08:55.775Z,37.42
2018-02-27T10:11:24.289Z,33.17
2018-02-27T10:13:52.026Z,30.73
2018-02-27T10:16:20.535Z,30.27
2018-02-27T10:18:48.344Z,54.20
2018-02-27T10:21:17.239Z,46.92
2018-02-27T10:23:45.027Z,32.40
2018-02-27T10:26:13.499Z,34.17
2018-02-27T10:28:41.408Z,39.75
2018-02-27T10:31:09.199Z,37.47
2018-02-27T10:33:37.079Z,41.25
2018-02-27T10:36:04.870Z,33.00
2018-02-27T10:38:32.713Z,34.85
2018-02-27T10:41:00.692Z,31.12
2018-02-27T10:43:28.433Z,31.10
2018-02-27T10:45:56.126Z,36.88
2018-02-27T10:48:24.706Z,51.60
2018-02-27T10:50:52.478Z,47.75
2018-02-27T10:53:20.294Z,51.50
2018-02-27T10:55:47.935Z,29.10
2018-02-27T10:58:15.925Z,31.10
2018-02-27T11:00:49.470Z,36.42
2018-02-27T11:03:17.253Z,35.22
2018-02-27T11:05:46.054Z,45.05
2018-02-27T11:08:14.489Z,45.20
2018-02-27T11:10:42.145Z,46.80
2018-02-27T11:13:09.949Z,39.38
2018-02-27T11:15:38.459Z,41.00
2018-02-27T11:18:06.097Z,27.95
2018-02-27T11:20:33.946Z,36.97
2018-02-27T11:23:02.444Z,37.05
2018-02-27T11:25:30.993Z,45.55
2018-02-27T11:27:59.623Z,40.12
2018-02-27T11:30:27.345Z,36.97
2018-02-27T11:32:55.521Z,44.58
2018-02-27T11:35:23.265Z,45.72
2018-02-27T11:37:51.092Z,34.78
2018-02-27T11:40:18.934Z,36.85
2018-02-27T11:42:46.745Z,39.70
2018-02-27T11:45:14.387Z,35.67
2018-02-27T11:47:42.999Z,36.42
2018-02-27T11:50:10.845Z,41.50
2018-02-27T11:52:39.688Z,37.95
2018-02-27T11:55:07.488Z,33.45
2018-02-27T11:57:35.304Z,38.22
2018-02-27T12:00:03.224Z,32.10
2018-02-27T12:02:30.827Z,31.90
2018-02-27T12:04:58.449Z,35.05
2018-02-27T12:07:26.832Z,36.85
2018-02-27T12:09:54.552Z,41.30
2018-02-27T12:12:22.161Z,37.38
2018-02-27T12:14:49.917Z,35.30
2018-02-27T12:17:18.132Z,38.65
2018-02-27T12:19:45.754Z,42.67
2018-02-27T12:22:14.205Z,36.85
2018-02-27T12:24:42.765Z,33.33
2018-02-27T12:27:10.484Z,33.40
2018-02-27T12:29:38.985Z,41.83
2018-02-27T12:32:06.884Z,35.28
2018-02-27T12:34:34.938Z,39.67
2018-02-27T12:37:03.406Z,51.58
2018-02-27T12:39:31.515Z,43.70
2018-02-27T12:41:59.296Z,41.17
2018-02-27T12:44:27.897Z,41.35
2018-02-27T12:46:57.439Z,37.78
2018-02-27T12:49:25.621Z,38.72
2018-02-27T12:51:53.673Z,36.10
2018-02-27T12:54:21.347Z,31.87
2018-02-27T12:56:49.117Z,38.10
2018-02-27T12:59:17.041Z,35.97
2018-02-27T13:01:44.775Z,36.13
2018-02-27T13:04:12.399Z,39.45
2018-02-27T13:06:40.132Z,43.20
2018-02-27T13:09:09.370Z,44.35
2018-02-27T13:11:38.060Z,29.92
2018-02-27T13:14:07.663Z,37.95
2018-02-27T13:16:47.650Z,34.90
2018-02-27T13:19:15.860Z,35.30
2018-02-27T13:21:43.828Z,39.60
2018-02-27T13:24:11.593Z,38.90
2018-02-27T13:26:39.278Z,36.42
2018-02-27T13:29:06.999Z,37.30
2018-02-27T13:31:35.119Z,29.63
2018-02-27T13:34:02.978Z,32.92
2018-02-27T13:39:28.756Z,35.13
2018-02-27T13:41:56.497Z,50.53
2018-02-27T13:44:24.186Z,34.13
2018-02-27T13:46:52.290Z,41.00
2018-02-27T13:49:24.845Z,34.33
2018-02-27T13:51:48.733Z,30.37
2018-02-27T13:54:16.659Z,41.88
2018-02-27T13:56:44.398Z,32.92
2018-02-27T13:59:12.155Z,34.33
2018-02-27T14:01:49.367Z,38.90
2018-02-27T14:04:24.674Z,40.53
2018-02-27T14:06:52.793Z,29.05
2018-02-27T14:09:21.296Z,31.17
2018-02-27T14:11:50.418Z,38.47
2018-02-27T14:14:18.638Z,35.03
2018-02-27T14:16:47.278Z,37.03
2018-02-27T14:19:15.689Z,32.22
2018-02-27T14:21:44.529Z,28.45
2018-02-27T14:24:13.243Z,32.92
2018-02-27T14:26:41.187Z,33.53
2018-02-27T14:29:09.502Z,34.13
2018-02-27T14:31:37.146Z,31.85
2018-02-27T14:34:04.927Z,38.30
2018-02-27T14:36:42.591Z,40.90
2018-02-27T14:39:10.360Z,35.95
2018-02-27T14:41:38.470Z,29.73
2018-02-27T14:44:06.170Z,26.70
2018-02-27T14:46:33.936Z,34.70
2018-02-27T14:49:01.999Z,33.28
2018-02-27T14:51:29.811Z,40.30
2018-02-27T14:53:57.701Z,33.67
2018-02-27T14:56:25.511Z,34.75
2018-02-27T14:58:53.189Z,31.05
2018-02-27T15:01:21.095Z,31.27
2018-02-27T15:03:48.777Z,25.62
2018-02-27T15:06:16.853Z,26.62
2018-02-27T15:08:44.673Z,36.28
2018-02-27T15:11:13.267Z,34.70
2018-02-27T15:13:41.133Z,33.67
2018-02-27T15:16:09.582Z,30.10
2018-02-27T15:18:37.617Z,37.75
2018-02-27T15:21:05.594Z,33.20
2018-02-27T15:23:33.572Z,33.03
2018-02-27T15:26:01.458Z,43.22
2018-02-27T15:28:29.686Z,32.28
2018-02-27T15:30:57.743Z,31.20
2018-02-27T15:33:26.488Z,43.72
2018-02-27T15:35:54.839Z,34.25
2018-02-27T15:38:24.516Z,30.58
2018-02-27T15:40:53.648Z,32.38
2018-02-27T15:43:21.931Z,30.08
2018-02-27T15:45:49.747Z,26.20
2018-02-27T15:48:17.470Z,34.28
2018-02-27T15:50:45.329Z,28.30
2018-02-27T15:53:14.390Z,25.42
2018-02-27T15:55:42.441Z,29.08
2018-02-27T15:58:10.206Z,28.67
2018-02-27T16:00:38.055Z,30.15
2018-02-27T16:03:05.994Z,41.72
2018-02-27T16:05:35.070Z,28.65
2018-02-27T16:08:04.386Z,33.35
2018-02-27T16:10:32.548Z,28.48
2018-02-27T16:13:02.607Z,27.30
2018-02-27T16:15:31.812Z,28.85
2018-02-27T16:18:00.046Z,60.33
2018-02-27T16:20:27.984Z,37.80
2018-02-27T16:22:56.423Z,28.08
2018-02-27T16:25:25.017Z,30.02
2018-02-27T16:27:54.549Z,29.05
2018-02-27T16:30:22.256Z,31.73
2018-02-27T16:32:51.875Z,22.70
2018-02-27T16:35:19.567Z,27.25
2018-02-27T16:37:47.178Z,23.38
2018-02-27T16:40:14.875Z,31.08
2018-02-27T16:42:43.410Z,29.02
2018-02-27T16:45:11.238Z,31.10
2018-02-27T16:47:38.994Z,24.73
2018-02-27T16:50:06.895Z,30.92
2018-02-27T16:52:40.364Z,27.50
2018-02-27T16:55:08.610Z,28.83
2018-02-27T16:57:36.444Z,28.25
2018-02-27T17:00:04.415Z,25.42
2018-02-27T17:02:32.300Z,26.83
2018-02-27T17:05:00.019Z,29.73
2018-02-27T17:07:27.745Z,35.17
2018-02-27T17:09:56.291Z,30.70
2018-02-27T17:12:24.169Z,23.92
2018-02-27T17:14:51.914Z,21.83
2018-02-27T17:17:20.488Z,25.10
2018-02-27T17:19:48.346Z,28.10
2018-02-27T17:22:16.303Z,28.70
2018-02-27T17:24:43.981Z,31.73
2018-02-27T17:27:11.769Z,27.73
2018-02-27T17:29:39.635Z,22.50
2018-02-27T17:32:07.318Z,31.25
2018-02-27T17:34:35.034Z,25.27
2018-02-27T17:37:02.807Z,33.20
2018-02-27T17:39:30.412Z,33.92
2018-02-27T17:41:58.056Z,25.25
2018-02-27T17:44:25.856Z,37.25
2018-02-27T17:46:53.612Z,32.15
2018-02-27T17:49:21.599Z,28.70
2018-02-27T17:51:49.324Z,27.45
2018-02-27T17:54:16.992Z,27.85
2018-02-27T17:56:44.803Z,43.33
2018-02-27T17:59:12.456Z,32.75
2018-02-27T18:01:40.254Z,26.98
2018-02-27T18:04:07.870Z,36.15
2018-02-27T18:06:35.654Z,29.98
2018-02-27T18:09:03.338Z,29.70
2018-02-27T18:11:31.148Z,29.17
2018-02-27T18:13:59.090Z,30.80
2018-02-27T18:16:26.729Z,31.12
2018-02-27T18:18:54.333Z,36.42
2018-02-27T18:21:21.965Z,31.67
2018-02-27T18:23:49.720Z,43.30
2018-02-27T18:26:17.360Z,37.17
2018-02-27T18:28:45.705Z,38.38
2018-02-27T18:31:13.499Z,29.42
2018-02-27T18:33:41.074Z,35.03
2018-02-27T18:36:08.783Z,30.70
2018-02-27T18:38:36.398Z,39.90
2018-02-27T18:41:04.077Z,42.62
2018-02-27T18:43:31.769Z,41.90
2018-02-27T18:45:59.442Z,33.95
2018-02-27T18:48:27.885Z,37.58
2018-02-27T18:50:55.541Z,37.17
2018-02-27T18:53:23.163Z,36.65
2018-02-27T18:55:50.789Z,27.65
2018-02-27T18:58:18.432Z,33.75
2018-02-27T19:00:46.013Z,34.33
2018-02-27T19:03:13.637Z,42.60
2018-02-27T19:05:41.239Z,37.58
2018-02-27T19:08:08.868Z,41.28
2018-02-27T19:10:36.446Z,41.88
2018-02-27T19:13:04.064Z,38.85
2018-02-27T19:15:32.473Z,28.52
2018-02-27T19:18:00.056Z,37.95
2018-02-27T19:20:27.621Z,43.28
2018-02-27T19:22:56.054Z,31.12
2018-02-27T19:25:24.399Z,32.78
2018-02-27T19:27:51.971Z,35.15
2018-02-27T19:30:19.712Z,46.95
2018-02-27T19:32:47.421Z,44.67
2018-02-27T19:35:15.798Z,50.25
2018-02-27T19:37:44.430Z,40.95
2018-02-27T19:40:12.098Z,36.55
2018-02-27T19:42:39.682Z,49.70
2018-02-27T19:45:07.301Z,39.03
2018-02-27T19:47:34.930Z,36.78
2018-02-27T19:50:03.396Z,30.50
2018-02-27T19:52:31.046Z,49.47
2018-02-27T19:54:58.679Z,27.40
2018-02-27T19:57:26.270Z,31.40
2018-02-27T19:59:54.010Z,36.40
2018-02-27T20:02:21.606Z,32.45
2018-02-27T20:04:50.043Z,39.33
2018-02-27T20:07:18.390Z,37.08
2018-02-27T20:09:46.959Z,34.47
2018-02-27T20:12:14.618Z,36.83
2018-02-27T20:14:42.452Z,35.67
2018-02-27T20:17:10.082Z,37.72
2018-02-27T20:19:37.663Z,42.15
2018-02-27T20:22:05.310Z,47.08
2018-02-27T20:24:32.955Z,38.95
2018-02-27T20:27:00.570Z,35.15
2018-02-27T20:29:28.196Z,33.33
2018-02-27T20:31:55.793Z,36.65
2018-02-27T20:34:23.440Z,34.78
2018-02-27T20:36:51.154Z,38.50
2018-02-27T20:39:23.451Z,36.00
2018-02-27T20:41:51.078Z,35.03
2018-02-27T20:44:19.535Z,36.80
2018-02-27T20:46:47.109Z,32.17
2018-02-27T20:49:14.730Z,35.20
2018-02-27T20:51:42.310Z,38.70
2018-02-27T20:54:09.925Z,36.78
2018-02-27T20:56:37.546Z,46.33
2018-02-27T20:59:05.113Z,48.70
2018-02-27T21:01:32.755Z,42.20
2018-02-27T21:04:01.129Z,39.25
2018-02-27T21:06:28.786Z,38.50
2018-02-27T21:08:56.385Z,46.35
2018-02-27T21:11:25.276Z,44.78
2018-02-27T21:13:53.657Z,31.45
2018-02-27T21:16:22.056Z,39.88
2018-02-27T21:18:50.474Z,49.78
2018-02-27T21:21:18.081Z,37.92
2018-02-27T21:23:45.739Z,57.35
2018-02-27T21:26:14.144Z,45.03
2018-02-27T21:28:42.796Z,44.22
2018-02-27T21:31:10.346Z,36.53
2018-02-27T21:33:38.006Z,33.25
2018-02-27T21:36:05.614Z,40.22
2018-02-27T21:38:33.203Z,38.92
2018-02-27T21:41:00.827Z,38.33
2018-02-27T21:43:29.171Z,36.47
2018-02-27T21:45:56.790Z,30.45
2018-02-27T21:48:24.426Z,38.13
2018-02-27T21:50:52.033Z,49.65
2018-02-27T21:53:19.686Z,35.00
2018-02-27T21:55:47.301Z,40.30
2018-02-27T21:58:15.661Z,47.28
2018-02-27T22:00:43.276Z,31.83
2018-02-27T22:03:10.911Z,46.67
2018-02-27T22:05:39.317Z,39.53
2018-02-27T22:08:06.946Z,37.28
2018-02-27T22:10:34.544Z,34.95
2018-02-27T22:13:02.157Z,41.22
2018-02-27T22:15:29.774Z,40.88
2018-02-27T22:17:58.131Z,39.38
2018-02-27T22:20:26.466Z,36.25
2018-02-27T22:22:54.086Z,41.50
2018-02-27T22:25:21.660Z,38.38
2018-02-27T22:27:49.269Z,36.33
2018-02-27T22:30:16.839Z,46.60
2018-02-27T22:32:45.237Z,32.03
2018-02-27T22:35:12.815Z,35.80
2018-02-27T22:37:40.421Z,34.40
2018-02-27T22:40:07.996Z,33.67
2018-02-27T22:42:36.350Z,35.80
2018-02-27T22:45:03.960Z,47.58
2018-02-27T22:47:31.537Z,43.00
2018-02-27T22:49:59.173Z,31.95
2018-02-27T22:52:26.781Z,40.60
2018-02-27T22:54:54.394Z,39.60
2018-02-27T22:57:21.993Z,34.00
2018-02-27T22:59:49.769Z,40.47
2018-02-27T23:02:17.340Z,42.00
2018-02-27T23:04:44.948Z,45.10
2018-02-27T23:07:12.549Z,44.33
2018-02-27T23:09:40.132Z,39.30
2018-02-27T23:12:07.746Z,37.97
2018-02-27T23:14:35.380Z,45.63
2018-02-27T23:17:02.998Z,35.03
2018-02-27T23:19:30.608Z,41.65
2018-02-27T23:21:58.989Z,53.45
2018-02-27T23:24:28.224Z,34.83
2018-02-27T23:26:56.943Z,47.42
2018-02-27T23:29:24.657Z,39.75
2018-02-27T23:31:52.874Z,38.28
2018-02-27T23:34:21.214Z,37.78
2018-02-27T23:36:48.825Z,40.80
2018-02-27T23:39:16.414Z,60.17
2018-02-27T23:41:44.810Z,47.80
2018-02-27T23:44:12.392Z,61.17
2018-02-27T23:46:40.003Z,39.97
2018-02-27T23:49:07.605Z,63.83
2018-02-27T23:51:36.006Z,38.95
2018-02-27T23:54:03.577Z,46.65
2018-02-27T23:56:31.197Z,50.50
2018-02-27T23:58:58.792Z,51.72
